Tiempo atmosférico en la estación meteorológica de Villablino, León (958 m.)



Fecha
DESCASC
Temp. máxima en grados centígrados (hora)
DESCASC
Temp. mínima en grados centígrados (hora)
DESCASC
Temp. media en grados centígrados
DESCASC
Racha de viento máxima en m/sg (hora)
DESCASC
Velocidad máxima media en intervalos de 10 minutos(hora)
DESCASC
Precipitaciones diarias en mm
DESCASC
Precipitaciones de 00:00 a 06:00 en mm
DESCASC
Precipitaciones de 06:00 a 12:00 en mm
DESCASC
Precipitaciones de 12:00 a 18:00 en mm
DESCASC
Precipitaciones de 18:00 a 24:00 en mm
DESCASC
18-04-2019 14 (15:50) 4.3 (07:50) 9.2 12.22 (03:40) 6.94 (03:40) 4 2.6 0 0 1.4
17-04-2019 18.3 (16:30) 8.4 (23:50) 13.3 18.61 (13:10) 8.33 (09:10) 10.4 0 0 0 10.4
16-04-2019 18.8 (18:30) -1 (-00:0) 8.9 8.61 (17:50) 5.83 (17:50) 0 0 0 0 0
15-04-2019 15.5 (14:20) 3.9 (00:00) 9.7 21.11 (15:10) 11.11 (12:50) 12.8 0 9.8 2.8 0.2
14-04-2019 20.5 (18:10) 9.1 (00:00) 14.8 10.28 (16:30) 6.67 (13:50) 0 0 0 0 0
13-04-2019 19.1 (16:20) 1.7 (00:00) 10.4 10.28 (18:50) 6.11 (18:50) 0 0 0 0 0
12-04-2019 19.4 (17:40) -3 (-00:0) 8.2 6.39 (15:40) 3.61 (15:20) 0 0 0 0 0
11-04-2019 11.6 (18:30) -1.6 (-00:0) 5 7.22 (13:30) 4.17 (18:20) 0 0 0 0 0
10-04-2019 10.3 (17:10) 1.4 (00:00) 5.9 10.56 (13:20) 5.83 (13:20) 6 5.6 0.4 0 0
09-04-2019 9.3 (14:50) 2.2 (00:00) 5.8 13.33 (16:50) 7.78 (16:50) 11.2 1.6 2.2 1 6.4
08-04-2019 11.5 (15:50) 1.1 (00:00) 6.3 13.33 (13:00) 8.06 (13:20) 3.8 2.2 0.8 0 0.8
07-04-2019 8.8 (15:10) -0.7 (-00:0) 4.1 8.61 (11:50) 5 (12:50) 9.2 0 0 0.6 8.6
06-04-2019 5.6 (14:50) 1 (00:00) 3.3 11.67 (16:30) 7.5 (16:30) 7.4 0.6 0.6 3.4 2.8
05-04-2019 7.1 (14:40) 0.3 (00:00) 3.7 14.44 (12:00) 8.33 (12:10) 4.1 2.7 0 0.2 1.2
04-04-2019 6.1 (12:40) -1.2 (-00:0) 2.4 13.61 (14:20) 8.06 (13:20) 6.4 0.2 0 1.4 4.8
03-04-2019 5.9 (00:30) -0.4 (00:00) 2.8 10.56 (17:20) 4.72 (17:20) 3.4 0.2 0.4 1.4 1.4
02-04-2019 15.4 (15:00) -1 (-00:0) 7.2 10 (16:20) 5.28 (16:40) 0 0 0 0 0
01-04-2019 17.4 (16:20) -0.6 (-00:0) 8.4 8.89 (17:30) 4.17 (17:30) 0 0 0 0 0
31-03-2019 19.1 (15:00) -0.6 (-00:0) 9.3 9.72 (13:50) 4.72 (14:00) 0 0 0 0 0
30-03-2019 16.4 (14:20) 1.2 (00:00) 8.8 10 (15:30) 5.28 (15:30) 0.2 0 0 0.2 0
29-03-2019 19.7 (17:30) -2.3 (-00:0) 8.7 9.17 (14:30) 6.11 (14:10) 0 0 0 0 0
28-03-2019 22.6 (15:30) -2.8 (-00:0) 9.9 10 (16:10) 6.39 (16:00) 0 0 0 0 0
27-03-2019 22.3 (14:30) -2.9 (-00:0) 9.7 8.61 (16:30) 5.28 (16:30) 0 0 0 0 0
26-03-2019 21.4 (16:30) -1.2 (-00:0) 10.1 15 (15:10) 8.61 (15:30) 0 0 0 0 0
25-03-2019 19.7 (15:10) -1.7 (-00:0) 9 6.94 (17:00) 3.61 (13:40) 0 0 0 0 0
24-03-2019 21.2 (14:10) -1.2 (-00:0) 10 8.89 (18:50) 5 (18:50) 0 0 0 0 0
23-03-2019 22.1 (16:30) -2.7 (-00:0) 9.7 7.22 (19:00) 4.72 (19:00) 0 0 0 0 0
22-03-2019 19 (14:20) -3.3 (-00:0) 7.9 6.11 (15:30) 4.17 (17:00) 0 0 0 0 0
21-03-2019 18.5 (15:00) -2 (-00:0) 8.3 9.72 (15:30) 5.56 (15:30) 0 0 0 0 0

Gráficas

Temp. máximas Temp. mínimas Temp. medias Precipitaciones Rachas de viento máximas Velocidades máximas media en intervalos de 10 minutos

Datos horarios

Fecha y hora oficial Temperatura (ºC) Velocidad del viento (km/h) Dirección del viento Racha (km/h) Dirección de racha Precipitación (mm) Presión (hPa) Tendencia (hPa) Humedad (%)
2019-04-19 23:00:00 10.7 12 Norte 18 Norte 0 -- -- 73
2019-04-19 22:00:00 12.6 7 Nordeste 17 Norte 0 -- -- 67
2019-04-19 21:00:00 13.8 7 Norte 19 Norte 0 -- -- 63
2019-04-19 20:00:00 15.2 8 Este 22 Nordeste 0 -- -- 63
2019-04-19 19:00:00 17 4 Nordeste 21 Sur 0 -- -- 54
2019-04-19 18:00:00 16.6 8 Este 35 Sudoeste 0 -- -- 54
2019-04-19 17:00:00 16 11 Nordeste 35 Este 0 -- -- 53
2019-04-19 16:00:00 17 8 Este 30 Sudeste 0 -- -- 51
2019-04-19 15:00:00 17 10 Norte 44 Este 0 -- -- 51
2019-04-19 14:00:00 14.2 10 Nordeste 33 Nordeste 0 -- -- 58
2019-04-19 13:00:00 13 8 Noroeste 37 Sudeste 0 -- -- 62
2019-04-19 12:00:00 12.1 10 Norte 25 Norte 0 -- -- 64
2019-04-19 11:00:00 10.7 8 Norte 18 Nordeste 0 -- -- 73
2019-04-19 10:00:00 9.7 5 Norte 13 Norte 0 -- -- 77
2019-04-19 09:00:00 8.2 6 Norte 16 Nordeste 0 -- -- 86
2019-04-19 08:00:00 7.8 6 Norte 13 Norte 0.2 -- -- 90
2019-04-19 07:00:00 7.8 3 Norte 11 Norte 0.2 -- -- 90
2019-04-19 06:00:00 7.6 5 Norte 11 Noroeste 0.2 -- -- 89
2019-04-19 05:00:00 7.2 7 Norte 16 Noroeste 0 -- -- 92
2019-04-19 04:00:00 6.8 2 Norte 6 Noroeste 0.4 -- -- 96
2019-04-19 03:00:00 7.1 3 Noroeste 9 Norte 0.2 -- -- 94
2019-04-19 02:00:00 7.6 5 Nordeste 12 Norte 0 -- -- 92
2019-04-19 01:00:00 7.3 2 Sudoeste 11 Norte 0 -- -- 93
2019-04-19 00:00:00 7.2 4 Norte 6 Este 0 -- -- 97
2019-04-18 23:00:00 7.2 2 Oeste 5 Norte 0 -- -- 97
2019-04-18 22:00:00 7.4 2 Sudoeste 3 Sudoeste 0.2 -- -- 96
2019-04-18 21:00:00 7.7 2 Norte 6 Sur 0.2 -- -- 94
2019-04-18 20:00:00 8.1 5 Sudoeste 15 Nordeste 0.8 -- -- 92
2019-04-18 19:00:00 9.6 3 Norte 33 Noroeste 0.2 -- -- 78
2019-04-18 18:00:00 10.3 20 Noroeste 34 Noroeste 0 -- -- 74
2019-04-18 17:00:00 11.3 14 Norte 27 Norte 0 -- -- 69
2019-04-18 16:00:00 13.4 11 Sur 25 Sur 0 -- -- 60
2019-04-18 15:00:00 13.4 7 Sudoeste 15 Sudoeste 0 -- -- 55
2019-04-18 14:00:00 13.2 6 Nordeste 16 Sudeste 0 -- -- 56
2019-04-18 13:00:00 11.1 7 Este 13 Este 0 -- -- 67
2019-04-18 12:00:00 10.4 4 Sur 10 Sur 0 -- -- 79
2019-04-18 11:00:00 8.9 3 Sudeste 7 Sudoeste 0 -- -- 85
2019-04-18 10:00:00 6.6 0 Calma 6 Norte 0 -- -- 94
2019-04-18 09:00:00 4.9 3 Norte 6 Norte 0 -- -- 97
2019-04-18 08:00:00 4.5 4 Norte 8 Norte 0 -- -- 98
2019-04-18 07:00:00 5 3 Norte 6 Este 0 -- -- 97
2019-04-18 06:00:00 5.3 0 Calma 5 Sudoeste 0 -- -- 96
2019-04-18 05:00:00 6.1 4 Oeste 34 Sur 0.6 -- -- 90
2019-04-18 04:00:00 6.8 19 Sudoeste 44 Sur 0.8 -- -- 89
2019-04-18 03:00:00 7.8 4 Sur 5 Sur 0.8 -- -- 97
2019-04-18 02:00:00 8 4 Sudoeste 7 Sudeste 0 -- -- 96
2019-04-18 01:00:00 8.1 2 Oeste 12 Sudoeste 0.4 -- -- 95
2019-04-18 00:00:00 8.7 4 Norte 10 Norte 2.4 -- -- 95
2019-04-17 23:00:00 9 3 Este 7 Norte 2.2 -- -- 97
2019-04-17 22:00:00 9.1 4 Norte 11 Este 3.4 -- -- 95
2019-04-17 21:00:00 9.8 2 Sudoeste 56 Sur 2.4 -- -- 90
2019-04-17 20:00:00 15.2 17 Sudeste 50 Sur 0 -- -- 51
2019-04-17 19:00:00 16 13 Sudoeste 65 Sudeste 0 -- -- 44
2019-04-17 18:00:00 16.3 19 Sur 49 Sudeste 0 -- -- 42
2019-04-17 17:00:00 17.3 15 Sur 44 Sudeste 0 -- -- 40
2019-04-17 16:00:00 17.9 12 Sur 52 Sudoeste 0 -- -- 38
2019-04-17 15:00:00 16.3 21 Sudoeste 57 Sudoeste 0 -- -- 44
2019-04-17 14:00:00 15.4 17 Sudoeste 67 Sudoeste 0 -- -- 47
2019-04-17 13:00:00 15.1 30 Sudoeste 59 Sudoeste 0 -- -- 47
2019-04-17 12:00:00 14.6 24 Sudoeste 53 Sudoeste 0 -- -- 50
2019-04-17 11:00:00 15 23 Sur 59 Sudeste 0 -- -- 49
2019-04-17 10:00:00 14.2 27 Sur 62 Sur 0 -- -- 49
2019-04-17 09:00:00 13.7 29 Sur 60 Sudoeste 0 -- -- 50
2019-04-17 08:00:00 13 17 Sudoeste 45 Sudoeste 0 -- -- 48
2019-04-17 07:00:00 11.7 9 Noroeste 38 Sudoeste 0 -- -- 52
2019-04-17 06:00:00 12.3 10 Sudeste 31 Sudoeste 0 -- -- 52
2019-04-17 05:00:00 10.6 10 Norte 21 Este 0 -- -- 56
2019-04-17 04:00:00 10.8 6 Nordeste 16 Nordeste 0 -- -- 54
2019-04-17 03:00:00 9.8 3 Este 10 Sur 0 -- -- 61
2019-04-17 02:00:00 10.3 3 Noroeste 20 Este 0 -- -- 53
2019-04-17 01:00:00 11.9 12 Este 25 Sudeste 0 -- -- 47
2019-04-17 00:00:00 11.5 8 Sudoeste 29 Sudeste 0 -- -- 48
2019-04-16 23:00:00 10.5 3 Este 22 Sudeste 0 -- -- 52
2019-04-16 22:00:00 12.1 9 Sudeste 22 Sur 0 -- -- 47
2019-04-16 21:00:00 13.2 11 Sudeste 21 Sudeste 0 -- -- 46
2019-04-16 20:00:00 14.3 6 Sudeste 28 Sudeste 0 -- -- 41
2019-04-16 19:00:00 15.9 11 Sudeste 28 Este 0 -- -- 40
2019-04-16 18:00:00 17.4 15 Sudeste 31 Sur 0 -- -- 38
2019-04-16 17:00:00 17.4 15 Sudeste 24 Sudeste 0 -- -- 38
2019-04-16 16:00:00 16.6 7 Sudoeste 17 Sur 0 -- -- 34
2019-04-16 15:00:00 17.4 9 Sur 20 Sur 0 -- -- 36
2019-04-16 14:00:00 15.9 7 Sudoeste 16 Este 0 -- -- 43
2019-04-16 13:00:00 13.4 6 Sur 12 Sudoeste 0 -- -- 50
2019-04-16 12:00:00 11 8 Sur 12 Sudeste 0 -- -- 59
2019-04-16 11:00:00 8.3 5 Sur 8 Sur 0 -- -- 72
2019-04-16 10:00:00 7.6 3 Sudeste 6 Sudeste 0 -- -- 69
2019-04-16 09:00:00 2.9 4 Nordeste 6 Norte 0 -- -- 93
2019-04-16 08:00:00 -1 4 Norte 6 Norte 0 -- -- 99
2019-04-16 07:00:00 -0.7 2 Nordeste 8 Norte 0 -- -- 99
2019-04-16 06:00:00 -0.5 4 Norte 5 Norte 0 -- -- 99
2019-04-16 05:00:00 -0.2 0 Calma 6 Norte 0 -- -- 98
2019-04-16 04:00:00 0.7 5 Norte 8 Norte 0 -- -- 98
2019-04-16 03:00:00 1 0 Calma 4 Nordeste 0 -- -- 98
2019-04-16 02:00:00 1.9 2 Norte 7 Norte 0 -- -- 96
2019-04-16 01:00:00 2.9 4 Norte 6 Norte 0 -- -- 96
2019-04-16 00:00:00 3.9 0 Calma 5 Norte 0 -- -- 93
2019-04-15 23:00:00 4.9 3 Norte 10 Sudoeste 0 -- -- 90
2019-04-15 22:00:00 5.7 3 Sur 13 Oeste 0 -- -- 89
2019-04-15 21:00:00 7.1 3 Noroeste 18 Sudoeste 0 -- -- 82
2019-04-15 20:00:00 7.5 10 Norte 38 Noroeste 0.2 -- -- 85
2019-04-15 19:00:00 10.5 12 Sur 34 Sur 0 -- -- 70
2019-04-15 18:00:00 10.5 18 Sur 40 Sur 0 -- -- 70
2019-04-15 17:00:00 11.3 23 Sur 53 Sudoeste 0.6 -- -- 69
2019-04-15 16:00:00 8.8 26 Sudoeste 76 Sur 1.4 -- -- 82
2019-04-15 15:00:00 10 37 Sur 69 Sur 0.8 -- -- 82
2019-04-15 14:00:00 14.8 31 Sudoeste 60 Sudoeste 0 -- -- 59
2019-04-15 13:00:00 12.4 36 Sudoeste 68 Sur 0 -- -- 70
2019-04-15 12:00:00 12.7 30 Sur 62 Sur 4 -- -- 83
2019-04-15 11:00:00 11.5 4 Este 37 Sur 5.2 -- -- 92
2019-04-15 10:00:00 13.6 13 Sur 36 Sur 0.6 -- -- 77
2019-04-15 09:00:00 14.5 18 Sudeste 33 Sudeste 0 -- -- 67
2019-04-15 08:00:00 14.2 16 Sudeste 30 Sudeste 0 -- -- 66
2019-04-15 07:00:00 13.4 10 Sur 20 Sudeste 0 -- -- 70
2019-04-15 06:00:00 10.8 2 Sudoeste 15 Noroeste 0 -- -- 86
2019-04-15 05:00:00 11 4 Nordeste 9 Sudoeste 0 -- -- 84
2019-04-15 04:00:00 9 2 Noroeste 6 Este 0 -- -- 91
2019-04-15 03:00:00 9.7 0 Calma 10 Norte 0 -- -- 89
2019-04-15 02:00:00 10.3 5 Sur 12 Sur 0 -- -- 90
2019-04-15 01:00:00 10.3 0 Calma 4 Sudeste 0 -- -- 88
2019-04-15 00:00:00 11.8 2 Norte 4 Este 0 -- -- 80
2019-04-14 23:00:00 12.4 3 Norte 7 Nordeste 0 -- -- 78
2019-04-14 22:00:00 13.3 2 Sudeste 9 Sur 0 -- -- 75
2019-04-14 21:00:00 15.6 4 Sudoeste 22 Sur 0 -- -- 63
2019-04-14 20:00:00 17.2 11 Sur 19 Sur 0 -- -- 59
2019-04-14 19:00:00 18.4 7 Sur 19 Sudoeste 0 -- -- 54
2019-04-14 18:00:00 20 7 Sudoeste 26 Sudoeste 0 -- -- 49
2019-04-14 17:00:00 19.7 15 Sur 37 Sur 0 -- -- 50
2019-04-14 16:00:00 18.7 19 Sudoeste 31 Sudoeste 0 -- -- 54
2019-04-14 15:00:00 18.1 23 Sudoeste 32 Sudoeste 0 -- -- 55
2019-04-14 14:00:00 15.8 22 Sudoeste 31 Sur 0 -- -- 62
2019-04-14 13:00:00 16.4 16 Sudoeste 25 Sudoeste 0 -- -- 61
2019-04-14 12:00:00 17.1 9 Sur 15 Sur 0 -- -- 60
2019-04-14 11:00:00 14.3 4 Sur 6 Sudoeste 0 -- -- 68
2019-04-14 10:00:00 11.5 0 Calma 3 Sur 0 -- -- 76
2019-04-14 09:00:00 9.8 0 Calma 5 Sur 0 -- -- 85
2019-04-14 08:00:00 9.2 2 Norte 4 Noroeste 0 -- -- 84
2019-04-14 07:00:00 9.3 0 Calma 4 Norte 0 -- -- 85
2019-04-14 06:00:00 9.1 0 Calma 8 Norte 0 -- -- 83
2019-04-14 05:00:00 9.3 5 Norte 13 Sudoeste 0 -- -- 83
2019-04-14 04:00:00 10.9 9 Sudoeste 20 Sudoeste 0 -- -- 80
2019-04-14 03:00:00 11.4 10 Sudoeste 17 Sur 0 -- -- 77
2019-04-14 02:00:00 11.2 2 Sur 17 Sudoeste 0 -- -- 78
2019-04-14 01:00:00 11.7 13 Sudoeste 19 Sudoeste 0 -- -- 74
2019-04-14 00:00:00 11.4 2 Este 7 Sur 0 -- -- 70
2019-04-13 23:00:00 11.9 2 Este 7 Sudoeste 0 -- -- 71
2019-04-13 22:00:00 13.1 3 Noroeste 20 Noroeste 0 -- -- 59
2019-04-13 21:00:00 14.4 11 Noroeste 16 Oeste 0 -- -- 52
2019-04-13 20:00:00 15.9 4 Noroeste 29 Sur 0 -- -- 45
2019-04-13 19:00:00 16.2 20 Sur 37 Sur 0 -- -- 44
2019-04-13 18:00:00 18.8 8 Sur 22 Sur 0 -- -- 33
2019-04-13 17:00:00 17.9 13 Sur 29 Sur 0 -- -- 35
2019-04-13 16:00:00 18.9 13 Sur 30 Sur 0 -- -- 34
2019-04-13 15:00:00 17.4 15 Sur 28 Sur 0 -- -- 35
2019-04-13 14:00:00 17.2 13 Sur 26 Sur 0 -- -- 31
2019-04-13 13:00:00 17.3 12 Sur 29 Sur 0 -- -- 36
2019-04-13 12:00:00 15.6 3 Sur 7 Sur 0 -- -- 45
2019-04-13 11:00:00 11.6 4 Sur 7 Sur 0 -- -- 57
2019-04-13 10:00:00 9.7 3 Sudeste 8 Nordeste 0 -- -- 63
2019-04-13 09:00:00 5.8 3 Nordeste 7 Nordeste 0 -- -- 75
2019-04-13 08:00:00 1.7 0 Calma 7 Norte 0 -- -- 94
2019-04-13 07:00:00 2.7 5 Norte 9 Norte 0 -- -- 88
2019-04-13 06:00:00 2.5 2 Norte 8 Norte 0 -- -- 94
2019-04-13 05:00:00 3.3 4 Norte 5 Norte 0 -- -- 92
2019-04-13 04:00:00 3.2 0 Calma 4 Norte 0 -- -- 91
2019-04-13 03:00:00 3.3 0 Calma 6 Norte 0 -- -- 92
2019-04-13 02:00:00 4.4 4 Norte 6 Norte 0 -- -- 87
2019-04-13 01:00:00 5 3 Este 13 Norte 0 -- -- 86
2019-04-13 00:00:00 5.9 4 Norte 12 Norte 0 -- -- 79
2019-04-12 23:00:00 7 3 Norte 13 Norte 0 -- -- 77
2019-04-12 22:00:00 8.8 2 Noroeste 19 Noroeste 0 -- -- 69
2019-04-12 21:00:00 11.8 12 Noroeste 20 Noroeste 0 -- -- 58
2019-04-12 20:00:00 13.5 8 Noroeste 14 Noroeste 0 -- -- 46
2019-04-12 19:00:00 14.3 8 Oeste 16 Noroeste 0 -- -- 43
2019-04-12 18:00:00 18.3 8 Sur 19 Sur 0 -- -- 31
2019-04-12 17:00:00 18.4 9 Sur 19 Sudoeste 0 -- -- 33
2019-04-12 16:00:00 17 13 Sur 23 Sur 0 -- -- 33
2019-04-12 15:00:00 17.7 6 Sur 13 Sur 0 -- -- 34
2019-04-12 14:00:00 14.8 6 Sur 10 Sur 0 -- -- 39
2019-04-12 13:00:00 12.9 8 Sur 11 Sudoeste 0 -- -- 44
2019-04-12 12:00:00 10.1 3 Sur 8 Sudeste 0 -- -- 52
2019-04-12 11:00:00 7.5 3 Sudeste 7 Sur 0 -- -- 64
2019-04-12 10:00:00 4.7 4 Sudeste 5 Sudeste 0 -- -- 67
2019-04-12 09:00:00 0.7 3 Nordeste 8 Norte 0 -- -- 94
2019-04-12 08:00:00 -3 2 Nordeste 5 Norte 0 -- -- 99
2019-04-12 07:00:00 -2.8 3 Norte 6 Nordeste 0 -- -- 98
2019-04-12 06:00:00 -2.3 0 Calma 4 Norte 0 -- -- 99
2019-04-12 05:00:00 -2 2 Norte 5 Norte 0 -- -- 98
2019-04-12 04:00:00 -1.5 3 Norte 5 Norte 0 -- -- 98
2019-04-12 03:00:00 -1.1 3 Norte 7 Norte 0 -- -- 97
2019-04-12 02:00:00 -0.5 2 Norte 7 Nordeste 0 -- -- 96
2019-04-12 01:00:00 0.1 2 Norte 6 Norte 0 -- -- 96
2019-04-12 00:00:00 1.1 2 Norte 8 Nordeste 0 -- -- 92
2019-04-11 23:00:00 3.1 5 Norte 12 Norte 0 -- -- 86
2019-04-11 22:00:00 5.3 6 Norte 19 Norte 0 -- -- 77
2019-04-11 21:00:00 7 10 Noroeste 23 Noroeste 0 -- -- 69
2019-04-11 20:00:00 8.3 10 Noroeste 22 Norte 0 -- -- 63
2019-04-11 19:00:00 9.7 13 Noroeste 26 Norte 0 -- -- 56
2019-04-11 18:00:00 9.7 15 Noroeste 24 Noroeste 0 -- -- 54
2019-04-11 17:00:00 10.1 11 Norte 24 Noroeste 0 -- -- 54
2019-04-11 16:00:00 10.5 12 Noroeste 20 Noroeste 0 -- -- 51
2019-04-11 15:00:00 10.6 13 Noroeste 26 Oeste 0 -- -- 51
2019-04-11 14:00:00 8.8 14 Noroeste 26 Noroeste 0 -- -- 58
2019-04-11 13:00:00 9 10 Norte 22 Norte 0 -- -- 54
2019-04-11 12:00:00 11.4 5 Sudeste 10 Sudeste 0 -- -- 53
2019-04-11 11:00:00 9.1 4 Sudeste 7 Sur 0 -- -- 62
2019-04-11 10:00:00 6.4 3 Sudeste 6 Este 0 -- -- 69
2019-04-11 09:00:00 2.4 0 Calma 5 Este 0 -- -- 96
2019-04-11 08:00:00 -1.5 4 Norte 6 Norte 0 -- -- 99
2019-04-11 07:00:00 -1.4 2 Norte 6 Norte 0 -- -- 99
2019-04-11 06:00:00 -0.5 3 Noroeste 8 Norte 0 -- -- 99
2019-04-11 05:00:00 0.1 4 Norte 6 Norte 0 -- -- 98
2019-04-11 04:00:00 0.9 3 Norte 5 Norte 0 -- -- 97
2019-04-11 03:00:00 2.6 2 Norte 5 Nordeste 0 -- -- 94
2019-04-11 02:00:00 2.7 2 Nordeste 5 Nordeste 0 -- -- 95
2019-04-11 01:00:00 2.4 0 Calma 8 Norte 0 -- -- 93
2019-04-11 00:00:00 3.4 0 Calma 8 Nordeste 0 -- -- 91
2019-04-10 23:00:00 3.7 3 Nordeste 8 Norte 0 -- -- 90
2019-04-10 22:00:00 4.6 5 Norte 16 Norte 0 -- -- 84
2019-04-10 21:00:00 5.3 9 Norte 25 Noroeste 0 -- -- 80
2019-04-10 20:00:00 6.4 11 Noroeste 24 Noroeste 0 -- -- 77
2019-04-10 19:00:00 6.6 17 Noroeste 28 Noroeste 0 -- -- 72
2019-04-10 18:00:00 7.7 10 Norte 29 Norte 0 -- -- 71
2019-04-10 17:00:00 9 13 Norte 34 Noroeste 0 -- -- 70
2019-04-10 16:00:00 8.2 13 Norte 32 Norte 0 -- -- 70
2019-04-10 15:00:00 8.6 14 Norte 33 Noroeste 0 -- -- 72
2019-04-10 14:00:00 7.3 18 Noroeste 38 Noroeste 0 -- -- 76
2019-04-10 13:00:00 7.4 9 Norte 24 Noroeste 0 -- -- 78
2019-04-10 12:00:00 5.9 5 Sudoeste 14 Sur 0 -- -- 91
2019-04-10 11:00:00 4.2 6 Sudoeste 9 Sudoeste 0 -- -- 94
2019-04-10 10:00:00 3.2 0 Calma 6 Noroeste 0.2 -- -- 96
2019-04-10 09:00:00 2.1 2 Noroeste 10 Sur 0 -- -- 97
2019-04-10 08:00:00 1.7 3 Sudoeste 7 Norte 0 -- -- 97
2019-04-10 07:00:00 1.4 4 Norte 7 Noroeste 0.2 -- -- 97
2019-04-10 06:00:00 1.8 3 Norte 8 Norte 1.6 -- -- 96
2019-04-10 05:00:00 2.2 6 Noroeste 13 Sudoeste 1.8 -- -- 95
2019-04-10 04:00:00 2.5 8 Oeste 23 Sudoeste 0.8 -- -- 93
2019-04-10 03:00:00 2.9 13 Sudoeste 22 Sudoeste 0.6 -- -- 92
2019-04-10 02:00:00 3.1 13 Oeste 29 Sudoeste 0.2 -- -- 89
2019-04-10 01:00:00 3.1 11 Sudoeste 26 Sudoeste 0.6 -- -- 92
2019-04-10 00:00:00 3.2 15 Sudoeste 29 Sudoeste 0.2 -- -- 91
2019-04-09 23:00:00 3.5 12 Sudoeste 21 Sudoeste 0.4 -- -- 90
2019-04-09 22:00:00 3.3 7 Sudoeste 23 Norte 1.4 -- -- 93
2019-04-09 21:00:00 3.6 8 Norte 37 Sur 2 -- -- 90
2019-04-09 20:00:00 4.9 17 Sur 42 Sur 1.2 -- -- 86
2019-04-09 19:00:00 5.3 21 Sur 39 Sudoeste 1.2 -- -- 85
2019-04-09 18:00:00 7.4 17 Sudoeste 45 Sur 0 -- -- 74
2019-04-09 17:00:00 7.1 17 Sur 48 Sur 0.8 -- -- 73
2019-04-09 16:00:00 7.3 15 Sur 46 Sur 0.2 -- -- 76
2019-04-09 15:00:00 8.5 27 Sur 36 Sur 0 -- -- 67
2019-04-09 14:00:00 6.9 14 Sudoeste 28 Sudoeste 0 -- -- 72
2019-04-09 13:00:00 6 12 Sudoeste 28 Sudoeste 0 -- -- 71
2019-04-09 12:00:00 4.3 18 Sudoeste 36 Sudoeste 0 -- -- 81
2019-04-09 11:00:00 4.4 19 Sudoeste 33 Sur 0 -- -- 83
2019-04-09 10:00:00 2.5 6 Sur 18 Sur 0.8 -- -- 94
2019-04-09 09:00:00 2.2 7 Sudoeste 18 Sur 0.6 -- -- 94
2019-04-09 08:00:00 2.3 6 Sur 19 Sur 0.2 -- -- 94
2019-04-09 07:00:00 3 9 Sudoeste 28 Sudoeste 0.6 -- -- 92
2019-04-09 06:00:00 3.4 6 Sur 18 Sur 0.4 -- -- 92
2019-04-09 05:00:00 3.9 9 Sudoeste 30 Sudoeste 0 -- -- 88
2019-04-09 04:00:00 4.4 13 Sur 35 Sudoeste 0.2 -- -- 84
2019-04-09 03:00:00 4.2 19 Sudoeste 40 Sur 0.4 -- -- 86
2019-04-09 02:00:00 4.1 15 Sudoeste 36 Sudoeste 0.4 -- -- 85
2019-04-09 01:00:00 5.2 8 Sudoeste 29 Sudoeste 0.2 -- -- 76
2019-04-09 00:00:00 5 12 Oeste 37 Sur 0 -- -- 79
2019-04-08 23:00:00 4.6 4 Sudeste 13 Oeste 0 -- -- 91
2019-04-08 22:00:00 4.3 3 Noroeste 8 Sudoeste 0 -- -- 94
2019-04-08 21:00:00 4.7 3 Noroeste 17 Sudoeste 0 -- -- 92
2019-04-08 20:00:00 5.6 13 Sur 33 Sudoeste 0.8 -- -- 82
2019-04-08 19:00:00 8.2 8 Noroeste 21 Sudoeste 0 -- -- 67
2019-04-08 18:00:00 8.2 19 Sudoeste 43 Sur 0 -- -- 63
2019-04-08 17:00:00 10 17 Sur 31 Sur 0 -- -- 51
2019-04-08 16:00:00 10.1 12 Sudoeste 34 Sudoeste 0 -- -- 56
2019-04-08 15:00:00 10.3 14 Sur 45 Sudoeste 0 -- -- 53
2019-04-08 14:00:00 8.9 19 Sur 42 Sur 0 -- -- 57
2019-04-08 13:00:00 8.2 24 Sur 48 Sur 0 -- -- 64
2019-04-08 12:00:00 6 17 Sur 37 Sudoeste 0 -- -- 78
2019-04-08 11:00:00 7.3 20 Sudoeste 32 Sudoeste 0 -- -- 68
2019-04-08 10:00:00 5.6 10 Sur 18 Sudoeste -- -- -- 91
2019-04-08 09:00:00 2.7 4 Nordeste 8 Norte 0.4 -- -- 99
2019-04-08 08:00:00 2.2 3 Norte 4 Norte 0.2 -- -- 99
2019-04-08 07:00:00 2.2 0 Calma 5 Este 0.2 -- -- 99
2019-04-08 06:00:00 2 2 Sur 8 Norte 0 -- -- 99
2019-04-08 05:00:00 1.9 2 Norte 11 Sudeste 0 -- -- 99
2019-04-08 04:00:00 1.9 3 Sudeste 6 Sudeste 0.2 -- -- 99
2019-04-08 03:00:00 1.7 0 Calma 6 Norte 0.6 -- -- 99
2019-04-08 02:00:00 1.5 2 Norte 6 Este 0.2 -- -- 98
2019-04-08 01:00:00 1.1 0 Calma 6 Sudeste 1.2 -- -- 99
2019-04-08 00:00:00 1.1 3 Noroeste 6 Sur 0.8 -- -- 98
2019-04-07 23:00:00 1.1 2 Nordeste 6 Norte 1.2 -- -- 98
2019-04-07 22:00:00 1 0 Calma 3 Noroeste 1.4 -- -- 97
2019-04-07 21:00:00 1.2 2 Sur 13 Sur 2 -- -- 97
2019-04-07 20:00:00 2.5 8 Sur 18 Sur 1.8 -- -- 95
2019-04-07 19:00:00 3.1 15 Sur 23 Sur 1.4 -- -- 92
2019-04-07 18:00:00 4.4 14 Sur 23 Sudoeste 0.6 -- -- 88
2019-04-07 17:00:00 6 12 Sur 28 Sudoeste 0 -- -- 75
2019-04-07 16:00:00 7.8 12 Sudoeste 23 Sudoeste 0 -- -- 59
2019-04-07 15:00:00 8.2 12 Sudoeste 23 Sudoeste 0 -- -- 58
2019-04-07 14:00:00 8.3 11 Sudoeste 26 Sudoeste 0 -- -- 58
2019-04-07 13:00:00 5.7 17 Sudoeste 31 Sudoeste 0 -- -- 66
2019-04-07 12:00:00 5.2 15 Sudoeste 31 Sudoeste 0 -- -- 67
2019-04-07 11:00:00 5.6 12 Sur 19 Sur 0 -- -- 64
2019-04-07 10:00:00 1.6 4 Norte 13 Sur 0 -- -- 83
2019-04-07 09:00:00 0.3 4 Norte 9 Norte 0 -- -- 88
2019-04-07 08:00:00 -0.3 0 Calma 7 Nordeste 0 -- -- 92
2019-04-07 07:00:00 -0.2 3 Norte 7 Nordeste 0 -- -- 92
2019-04-07 06:00:00 0.2 5 Noroeste 9 Norte 0 -- -- 91
2019-04-07 05:00:00 0.8 6 Sudoeste 14 Sur 0 -- -- 92
2019-04-07 04:00:00 1.3 2 Noroeste 16 Oeste 0 -- -- 92
2019-04-07 03:00:00 1.3 3 Norte 14 Oeste 0 -- -- 94
2019-04-07 02:00:00 1.4 9 Sudoeste 18 Sudoeste 0 -- -- 93
2019-04-07 01:00:00 1.8 4 Este 17 Sudoeste 0 -- -- 91
2019-04-07 00:00:00 1.8 5 Sur 12 Sur 0 -- -- 91
2019-04-06 23:00:00 1.6 2 Norte 13 Sudoeste 0 -- -- 90
2019-04-06 22:00:00 1.3 5 Noroeste 13 Noroeste 0 -- -- 88
2019-04-06 21:00:00 1.5 4 Noroeste 32 Sudoeste 0 -- -- 87
2019-04-06 20:00:00 1.4 19 Sudoeste 35 Sur 1 -- -- 94
2019-04-06 19:00:00 1.8 13 Sudoeste 26 Sudoeste 1.8 -- -- 94
2019-04-06 18:00:00 2 8 Norte 35 Sudoeste 1.8 -- -- 93
2019-04-06 17:00:00 3.4 21 Sudoeste 42 Sudoeste 0.2 -- -- 87
2019-04-06 16:00:00 2.7 10 Sur 37 Sur 1.4 -- -- 91
2019-04-06 15:00:00 4.6 20 Sur 40 Sur 0 -- -- 82
2019-04-06 14:00:00 4.7 13 Sudoeste 34 Sudoeste 0 -- -- 77
2019-04-06 13:00:00 3.9 15 Sudoeste 31 Sur 0 -- -- 78
2019-04-06 12:00:00 3.3 17 Sudoeste 30 Sudoeste 0 -- -- 85
2019-04-06 11:00:00 2.8 10 Sur 26 Sur 0.6 -- -- 84
2019-04-06 10:00:00 2.5 9 Sudoeste 24 Sudoeste 0 -- -- 85
2019-04-06 09:00:00 2 9 Sur 30 Sudoeste 0 -- -- 83
2019-04-06 08:00:00 2.2 16 Sudoeste 32 Sudoeste 0 -- -- 80
2019-04-06 07:00:00 1.8 11 Sudoeste 35 Sur 0 -- -- 85
2019-04-06 06:00:00 1.5 12 Sudoeste 30 Sur 0.2 -- -- 89
2019-04-06 05:00:00 1.7 16 Sur 30 Sudoeste 0.2 -- -- 87
2019-04-06 04:00:00 1.5 12 Sur 24 Sudoeste 0.2 -- -- 90
2019-04-06 03:00:00 2.1 8 Sudoeste 23 Oeste 0 -- -- 82
2019-04-06 02:00:00 2.3 13 Sudoeste 23 Oeste 0 -- -- 83
2019-04-06 01:00:00 2.2 6 Oeste 22 Sudoeste 0 -- -- 87
2019-04-06 00:00:00 1.4 5 Noroeste 13 Sudeste 0 -- -- 95
2019-04-05 23:00:00 0.9 5 Norte 15 Norte 0.6 -- -- 94
2019-04-05 22:00:00 2.2 6 Oeste 21 Sur 0.2 -- -- 94
2019-04-05 21:00:00 2.9 12 Sur 17 Sur 0 -- -- 91
2019-04-05 20:00:00 3.5 3 Oeste 15 Sudoeste 0 -- -- 87
2019-04-05 19:00:00 3 14 Sudoeste 32 Sur 0.4 -- -- 88
2019-04-05 18:00:00 2.7 30 Sur 44 Sur 0.2 -- -- 85
2019-04-05 17:00:00 6.2 14 Sudoeste 30 Sur 0 -- -- 59
2019-04-05 16:00:00 6 15 Sur 37 Sur 0 -- -- 56
2019-04-05 15:00:00 6 18 Sur 36 Sudoeste 0 -- -- 58
2019-04-05 14:00:00 6.1 18 Sudoeste 40 Sur 0 -- -- 56
2019-04-05 13:00:00 3.1 19 Sur 49 Sur 0 -- -- 75
2019-04-05 12:00:00 2.3 28 Sur 52 Sur 0 -- -- 75
2019-04-05 11:00:00 4.2 21 Sudoeste 34 Sur 0 -- -- 64
2019-04-05 10:00:00 2.4 21 Sudoeste 39 Sur 0 -- -- 73
2019-04-05 09:00:00 1.4 12 Sudoeste 30 Sur 0 -- -- 82
2019-04-05 08:00:00 1.2 11 Sudoeste 23 Sudoeste 0 -- -- 89
2019-04-05 07:00:00 1 4 Sur 18 Sur 0 -- -- 91
2019-04-05 06:00:00 1.3 13 Sudoeste 24 Sur 0 -- -- 90
2019-04-05 05:00:00 1.1 6 Sudeste 17 Sudoeste 0.2 -- -- 97
2019-04-05 04:00:00 1.2 5 Sudeste 10 Sudeste 0 -- -- 98
2019-04-05 03:00:00 1.1 4 Sur 10 Sudeste 0 -- -- 98
2019-04-05 02:00:00 0.8 5 Sur 8 Sur 0.8 -- -- 98
2019-04-05 01:00:00 0.4 4 Sur 7 Sudoeste -- -- -- 97
2019-04-05 00:00:00 0.5 0 Calma 6 Sur 1.4 -- -- 96
2019-04-04 23:00:00 1.5 3 Este 10 Este 0.4 -- -- 96
2019-04-04 22:00:00 1.7 6 Este 18 Sur 0.8 -- -- 95
2019-04-04 21:00:00 2.1 8 Sur 26 Sur 0.8 -- -- 91
2019-04-04 20:00:00 2.5 14 Sur 32 Sudoeste 0.6 -- -- 89
2019-04-04 19:00:00 2.5 15 Sur 30 Sur 0.8 -- -- 89
2019-04-04 18:00:00 3.2 15 Sudoeste 34 Sur 0.6 -- -- 87
2019-04-04 17:00:00 3.6 17 Sudoeste 30 Sur 0.4 -- -- 85
2019-04-04 16:00:00 3.1 13 Sudoeste 40 Sudoeste 0.4 -- -- 85
2019-04-04 15:00:00 4.3 17 Sur 49 Sur 0 -- -- 71
2019-04-04 14:00:00 5.4 20 Sur 47 Sur 0 -- -- 60
2019-04-04 13:00:00 4 21 Sur 45 Sur 0 -- -- 69
2019-04-04 12:00:00 4 13 Sudoeste 32 Sudoeste 0 -- -- 72
2019-04-04 11:00:00 2.7 12 Sudoeste 24 Sudoeste 0 -- -- 74
2019-04-04 10:00:00 1.4 9 Sur 21 Oeste 0 -- -- 79
2019-04-04 09:00:00 -0.4 3 Este 8 Sudeste 0 -- -- 90
2019-04-04 08:00:00 -0.7 4 Sur 8 Sur 0 -- -- 89
2019-04-04 07:00:00 -1.2 2 Oeste 14 Norte 0 -- -- 90
2019-04-04 06:00:00 0.3 8 Norte 19 Norte 0 -- -- 81
2019-04-04 05:00:00 -0.2 2 Sudoeste 7 Norte 0 -- -- 88
2019-04-04 04:00:00 -0.3 3 Oeste 6 Sudeste 0 -- -- 88
2019-04-04 03:00:00 -0.4 0 Calma 10 Norte 0.2 -- -- 91
2019-04-04 02:00:00 -0.4 4 Norte 7 Norte 0 -- -- 87
2019-04-04 01:00:00 -0.5 3 Noroeste 12 Norte 0 -- -- 86
2019-04-04 00:00:00 -0.4 5 Norte 22 Noroeste 0 -- -- 82
2019-04-03 23:00:00 -0.2 9 Nordeste 18 Norte 0.4 -- -- 94
2019-04-03 22:00:00 -0.2 7 Nordeste 27 Noroeste 0.2 -- -- 93
2019-04-03 21:00:00 0.7 11 Norte 27 Noroeste 0.2 -- -- 81
2019-04-03 20:00:00 0.9 8 Norte 23 Este 0.2 -- -- 77
2019-04-03 19:00:00 2 5 Norte 22 Noroeste 0.4 -- -- 77
2019-04-03 18:00:00 1.6 8 Norte 38 Noroeste 0.2 -- -- 84
2019-04-03 17:00:00 3.4 8 Norte 35 Norte 0 -- -- 69
2019-04-03 16:00:00 2.1 8 Nordeste 26 Noroeste 0.2 -- -- 81
2019-04-03 15:00:00 1.7 10 Norte 29 Noroeste 0.8 -- -- 83
2019-04-03 14:00:00 2.9 11 Norte 32 Norte 0 -- -- 75
2019-04-03 13:00:00 2 7 Sudoeste 26 Noroeste 0.2 -- -- 88
2019-04-03 12:00:00 2.7 8 Nordeste 19 Norte 0 -- -- 78
2019-04-03 11:00:00 1 9 Sudoeste 15 Este 0 -- -- 91
2019-04-03 10:00:00 2 4 Sur 18 Norte 0 -- -- 90
2019-04-03 09:00:00 1.1 8 Sudoeste 15 Sudoeste 0.2 -- -- 93
2019-04-03 08:00:00 1.7 0 Calma 9 Sudoeste 0 -- -- 89
2019-04-03 07:00:00 1.4 6 Sudoeste 10 Sur 0.2 -- -- 94
2019-04-03 06:00:00 1.7 2 Sur 12 Nordeste 0.2 -- -- 91
2019-04-03 05:00:00 2.4 5 Norte 12 Norte 0 -- -- 81
2019-04-03 04:00:00 2.8 6 Norte 21 Norte -- -- -- 80
2019-04-03 03:00:00 3.5 12 Norte 24 Noroeste 0 -- -- 79
2019-04-03 02:00:00 4.5 9 Norte 25 Noroeste 0 -- -- 75
2019-04-03 01:00:00 4.6 11 Noroeste 28 Noroeste 0 -- -- 78
2019-04-03 00:00:00 5.6 7 Norte 23 Noroeste 0 -- -- 72
2019-04-02 23:00:00 6.1 14 Norte 23 Noroeste 0 -- -- 72
2019-04-02 22:00:00 6.5 12 Noroeste 25 Noroeste 0 -- -- 72
2019-04-02 21:00:00 7.1 12 Noroeste 24 Noroeste 0 -- -- 73
2019-04-02 20:00:00 8 10 Norte 25 Norte 0 -- -- 70
2019-04-02 19:00:00 10.4 10 Norte 31 Norte 0 -- -- 57
2019-04-02 18:00:00 12.6 19 Nordeste 36 Nordeste 0 -- -- 50
2019-04-02 17:00:00 14.7 12 Norte 36 Noroeste 0 -- -- 46
2019-04-02 16:00:00 14.3 17 Norte 34 Noroeste 0 -- -- 42
2019-04-02 15:00:00 15.4 15 Norte 31 Noroeste 0 -- -- 31
2019-04-02 14:00:00 14.3 14 Noroeste 27 Noroeste 0 -- -- 33
2019-04-02 13:00:00 13.1 6 Nordeste 17 Norte 0 -- -- 39
2019-04-02 12:00:00 11.1 7 Sur 11 Sur 0 -- -- 55
2019-04-02 11:00:00 8.8 4 Sur 6 Sur 0 -- -- 59
2019-04-02 10:00:00 5.3 3 Sudeste 6 Nordeste 0 -- -- 69
2019-04-02 09:00:00 -0.5 4 Norte 6 Nordeste 0 -- -- 93
2019-04-02 08:00:00 -0.8 2 Norte 6 Nordeste 0 -- -- 94
2019-04-02 07:00:00 -0.2 2 Norte 7 Nordeste 0 -- -- 94
2019-04-02 06:00:00 -0.4 2 Nordeste 6 Norte 0 -- -- 92
2019-04-02 05:00:00 0.8 0 Calma 8 Norte 0 -- -- 90
2019-04-02 04:00:00 0.5 3 Norte 7 Norte 0 -- -- 90
2019-04-02 03:00:00 1.7 4 Norte 6 Norte 0 -- -- 88
2019-04-02 02:00:00 2.9 4 Norte 8 Norte 0 -- -- 83
2019-04-02 01:00:00 3.2 2 Norte 9 Norte 0 -- -- 81
2019-04-02 00:00:00 4.4 5 Norte 10 Norte 0 -- -- 76
2019-04-01 23:00:00 6.3 6 Norte 16 Norte 0 -- -- 71
2019-04-01 22:00:00 9.1 4 Nordeste 27 Noroeste 0 -- -- 64
2019-04-01 21:00:00 10.4 12 Noroeste 26 Noroeste 0 -- -- 59
2019-04-01 20:00:00 11.8 13 Noroeste 24 Norte 0 -- -- 55
2019-04-01 19:00:00 12.9 13 Noroeste 27 Norte 0 -- -- 41
2019-04-01 18:00:00 16.4 13 Norte 32 Norte 0 -- -- 36
2019-04-01 17:00:00 16.9 11 Noroeste 25 Norte 0 -- -- 34
2019-04-01 16:00:00 16.6 9 Nordeste 24 Norte 0 -- -- 30
2019-04-01 15:00:00 16.3 10 Norte 22 Noroeste 0 -- -- 30
2019-04-01 14:00:00 15.8 9 Norte 22 Noroeste 0 -- -- 31
2019-04-01 13:00:00 15.4 12 Este 22 Este 0 -- -- 34
2019-04-01 12:00:00 12.7 4 Sur 6 Sur 0 -- -- 55
2019-04-01 11:00:00 7.8 5 Sur 7 Sur 0 -- -- 66
2019-04-01 10:00:00 6.1 3 Sudeste 5 Este 0 -- -- 72
2019-04-01 09:00:00 -0.2 2 Nordeste 5 Nordeste 0 -- -- 95
2019-04-01 08:00:00 -0.2 3 Nordeste 6 Nordeste 0 -- -- 95
2019-04-01 07:00:00 0.4 4 Nordeste 6 Norte 0 -- -- 94
2019-04-01 06:00:00 1.4 3 Norte 6 Nordeste 0 -- -- 93
2019-04-01 05:00:00 3.3 4 Norte 8 Este 0 -- -- 85
2019-04-01 04:00:00 4.5 3 Nordeste 8 Nordeste 0 -- -- 83
2019-04-01 03:00:00 5 7 Norte 10 Norte 0 -- -- 80
2019-04-01 02:00:00 5.3 4 Norte 8 Norte 0 -- -- 79
2019-04-01 01:00:00 5.9 4 Norte 8 Norte 0 -- -- 76
2019-04-01 00:00:00 7.3 4 Nordeste 11 Norte 0 -- -- 69
2019-03-31 23:00:00 7.3 8 Norte 13 Nordeste 0 -- -- 70
2019-03-31 22:00:00 8.2 6 Norte 15 Norte 0 -- -- 67
2019-03-31 21:00:00 10.3 7 Norte 17 Norte 0 -- -- 58
2019-03-31 20:00:00 11.7 9 Norte 16 Norte 0 -- -- 55
2019-03-31 19:00:00 12.7 6 Nordeste 28 Norte 0 -- -- 54
2019-03-31 18:00:00 14.4 9 Nordeste 27 Este 0 -- -- 38
2019-03-31 17:00:00 18 9 Oeste 18 Oeste 0 -- -- 31
2019-03-31 16:00:00 16.1 10 Sudoeste 27 Sudoeste 0 -- -- 33
2019-03-31 15:00:00 19.1 4 Sudoeste 26 Este 0 -- -- 28
2019-03-31 14:00:00 14.4 17 Sudeste 35 Sudeste 0 -- -- 37
2019-03-31 13:00:00 15.7 5 Nordeste 14 Nordeste 0 -- -- 37
2019-03-31 12:00:00 11.9 3 Sudeste 8 Sudoeste 0 -- -- 56
2019-03-31 11:00:00 9.8 3 Sudeste 5 Sur 0 -- -- 61
2019-03-31 10:00:00 6.4 2 Sudeste 5 Sudeste 0 -- -- 80
2019-03-31 09:00:00 -0.5 0 Calma 6 Norte 0 -- -- 97
2019-03-31 08:00:00 -0.3 0 Calma 5 Oeste 0 -- -- 97
2019-03-31 07:00:00 0.6 3 Nordeste 7 Nordeste 0 -- -- 95
2019-03-31 06:00:00 1.7 2 Norte 6 Nordeste 0 -- -- 95
2019-03-31 05:00:00 2.7 0 Calma 4 Nordeste 0 -- -- 92
2019-03-31 03:00:00 4.7 3 Norte 6 Norte 0 -- -- 86
2019-03-31 01:00:00 5.3 3 Norte 8 Norte 0 -- -- 84
2019-03-31 00:00:00 5.7 0 Calma 5 Norte 0 -- -- 82
2019-03-30 23:00:00 6.5 3 Nordeste 11 Noroeste 0 -- -- 80
2019-03-30 22:00:00 8.3 7 Norte 15 Norte 0 -- -- 69
2019-03-30 21:00:00 8.4 7 Norte 17 Nordeste 0 -- -- 70
2019-03-30 20:00:00 8.9 8 Norte 14 Norte 0 -- -- 68
2019-03-30 19:00:00 10.1 4 Norte 26 Norte 0 -- -- 61
2019-03-30 18:00:00 11 5 Norte 22 Norte 0 -- -- 60
2019-03-30 17:00:00 10.9 8 Sudeste 28 Sur 0.2 -- -- 70
2019-03-30 16:00:00 13.1 13 Oeste 36 Sudoeste 0 -- -- 47
2019-03-30 15:00:00 14 13 Noroeste 28 Norte 0 -- -- 42
2019-03-30 14:00:00 15.8 3 Oeste 8 Sur 0 -- -- 43
2019-03-30 13:00:00 13 4 Sur 7 Sur 0 -- -- 55
2019-03-30 12:00:00 12.9 0 Calma 5 Sur 0 -- -- 57
2019-03-30 11:00:00 8.7 2 Sudeste 4 Sur 0 -- -- 68
2019-03-30 10:00:00 5.8 0 Calma 5 Norte 0 -- -- 78
2019-03-30 09:00:00 3.9 4 Norte 5 Norte 0 -- -- 85
2019-03-30 08:00:00 2.5 3 Nordeste 5 Norte 0 -- -- 89
2019-03-30 07:00:00 1.8 3 Norte 5 Norte 0 -- -- 91
2019-03-30 06:00:00 1.5 0 Calma 4 Norte 0 -- -- 91
2019-03-30 05:00:00 1.2 2 Norte 6 Norte 0 -- -- 91
2019-03-30 04:00:00 1.5 2 Nordeste 6 Norte 0 -- -- 92
2019-03-30 03:00:00 2.3 2 Nordeste 6 Nordeste 0 -- -- 89
2019-03-30 02:00:00 2.7 5 Norte 6 Norte 0 -- -- 86
2019-03-30 01:00:00 3.7 0 Calma 8 Norte 0 -- -- 87
2019-03-30 00:00:00 6 3 Nordeste 8 Norte 0 -- -- 76
2019-03-29 23:00:00 6.3 2 Nordeste 8 Nordeste 0 -- -- 81
2019-03-29 22:00:00 9.3 5 Norte 10 Nordeste 0 -- -- 67
2019-03-29 21:00:00 10.6 3 Norte 14 Noroeste 0 -- -- 66
2019-03-29 20:00:00 12.3 7 Noroeste 22 Noroeste 0 -- -- 59
2019-03-29 19:00:00 13.9 12 Noroeste 26 Norte 0 -- -- 51
2019-03-29 18:00:00 15.1 14 Noroeste 28 Noroeste 0 -- -- 44
2019-03-29 17:00:00 19.1 15 Sur 29 Sur 0 -- -- 23
2019-03-29 16:00:00 18.5 19 Sur 32 Sur 0 -- -- 26
2019-03-29 15:00:00 17.9 20 Sur 33 Sur 0 -- -- 26
2019-03-29 14:00:00 17.7 18 Sudoeste 32 Sudoeste 0 -- -- 28
2019-03-29 13:00:00 16.9 20 Sudoeste 27 Sudoeste 0 -- -- 33
2019-03-29 12:00:00 15.5 7 Sur 11 Sur 0 -- -- 33
2019-03-29 11:00:00 11.7 3 Sudeste 6 Sur 0 -- -- 44
2019-03-29 10:00:00 8.3 4 Sur 6 Sur 0 -- -- 55
2019-03-29 09:00:00 3.9 4 Este 6 Sudeste 0 -- -- 70
2019-03-29 08:00:00 -1.9 2 Norte 7 Norte 0 -- -- 94
2019-03-29 07:00:00 -1.9 2 Nordeste 5 Nordeste 0 -- -- 92
2019-03-29 06:00:00 -1.8 2 Este 7 Norte 0 -- -- 93
2019-03-29 05:00:00 -1.1 0 Calma 7 Norte 0 -- -- 94
2019-03-29 04:00:00 -0.8 2 Nordeste 5 Norte 0 -- -- 91
2019-03-29 03:00:00 -0.1 2 Nordeste 5 Norte 0 -- -- 90
2019-03-29 02:00:00 1.2 3 Nordeste 6 Nordeste 0 -- -- 87
2019-03-29 01:00:00 1.9 5 Norte 9 Norte 0 -- -- 84
2019-03-29 00:00:00 2.6 0 Calma 5 Norte 0 -- -- 85
2019-03-28 23:00:00 5.3 4 Nordeste 9 Norte 0 -- -- 74
2019-03-28 22:00:00 6.6 2 Nordeste 12 Norte 0 -- -- 72
2019-03-28 21:00:00 9 5 Noroeste 14 Noroeste 0 -- -- 67
2019-03-28 20:00:00 11.4 3 Este 24 Noroeste 0 -- -- 60
2019-03-28 19:00:00 14.7 12 Noroeste 27 Noroeste 0 -- -- 48
2019-03-28 18:00:00 15.6 18 Noroeste 29 Noroeste 0 -- -- 45
2019-03-28 17:00:00 18.8 18 Noroeste 36 Noroeste 0 -- -- 37
2019-03-28 16:00:00 19.5 23 Noroeste 32 Noroeste 0 -- -- 33
2019-03-28 15:00:00 21.1 8 Nordeste 21 Este 0 -- -- 18
2019-03-28 14:00:00 20.6 9 Este 25 Nordeste 0 -- -- 19
2019-03-28 13:00:00 19 12 Nordeste 23 Nordeste 0 -- -- 19
2019-03-28 12:00:00 18.2 9 Este 22 Este 0 -- -- 23
2019-03-28 11:00:00 12.9 3 Este 12 Sudeste 0 -- -- 37
2019-03-28 10:00:00 9.3 3 Sudeste 6 Sudeste 0 -- -- 43
2019-03-28 09:00:00 4.5 2 Sudeste 5 Sudeste 0 -- -- 62
2019-03-28 08:00:00 -2.1 2 Nordeste 4 Norte 0 -- -- 83
2019-03-28 07:00:00 -2.7 3 Nordeste 7 Norte 0 -- -- 83
2019-03-28 06:00:00 -2.1 2 Norte 6 Nordeste 0 -- -- 82
2019-03-28 05:00:00 -1.7 5 Norte 6 Norte 0 -- -- 81
2019-03-28 04:00:00 -1.3 3 Norte 5 Norte 0 -- -- 79
2019-03-28 03:00:00 -0.5 0 Calma 6 Noroeste 0 -- -- 81
2019-03-28 02:00:00 0 2 Nordeste 4 Sudeste 0 -- -- 78
2019-03-28 01:00:00 1 0 Calma 5 Oeste 0 -- -- 72
2019-03-28 00:00:00 2.2 3 Norte 6 Norte 0 -- -- 70
2019-03-27 23:00:00 3.8 0 Calma 8 Noroeste 0 -- -- 65
2019-03-27 22:00:00 6.2 6 Norte 15 Norte 0 -- -- 58
2019-03-27 21:00:00 8.7 9 Norte 16 Nordeste 0 -- -- 58
2019-03-27 20:00:00 11.4 8 Norte 18 Norte 0 -- -- 54
2019-03-27 19:00:00 14.1 8 Norte 19 Nordeste 0 -- -- 41
2019-03-27 18:00:00 16.5 8 Nordeste 25 Noroeste 0 -- -- 35
2019-03-27 17:00:00 19.9 12 Noroeste 31 Noroeste 0 -- -- 28
2019-03-27 16:00:00 20.8 14 Noroeste 29 Norte 0 -- -- 28
2019-03-27 15:00:00 21.6 8 Nordeste 20 Nordeste 0 -- -- 18
2019-03-27 14:00:00 20.8 10 Este 20 Sudeste 0 -- -- 16
2019-03-27 13:00:00 20.2 8 Este 17 Este 0 -- -- 18
2019-03-27 12:00:00 16.9 4 Sur 9 Sur 0 -- -- 21
2019-03-27 11:00:00 12.3 3 Sudeste 8 Sudeste 0 -- -- 25
2019-03-27 10:00:00 7 6 Sur 9 Sur 0 -- -- 41
2019-03-27 09:00:00 3.6 3 Este 5 Este 0 -- -- 50
2019-03-27 08:00:00 -2.5 2 Nordeste 5 Norte 0 -- -- 68
2019-03-27 07:00:00 -2.3 3 Nordeste 6 Norte 0 -- -- 69
2019-03-27 06:00:00 -2.1 2 Norte 8 Norte 0 -- -- 68
2019-03-27 05:00:00 -2.1 3 Nordeste 6 Nordeste 0 -- -- 74
2019-03-27 04:00:00 -1.9 0 Calma 6 Norte 0 -- -- 72
2019-03-27 03:00:00 -0.9 3 Norte 8 Norte 0 -- -- 68
2019-03-27 02:00:00 -0.7 2 Nordeste 8 Norte 0 -- -- 77
2019-03-27 01:00:00 0.3 3 Nordeste 8 Noroeste 0 -- -- 72
2019-03-27 00:00:00 1.9 3 Norte 7 Nordeste 0 -- -- 68
2019-03-26 23:00:00 3.7 2 Nordeste 8 Norte 0 -- -- 61
2019-03-26 22:00:00 6.6 9 Norte 13 Norte 0 -- -- 48
2019-03-26 21:00:00 8.7 8 Norte 18 Norte 0 -- -- 47
2019-03-26 20:00:00 12.4 7 Norte 15 Sudoeste 0 -- -- 27
2019-03-26 19:00:00 15.7 10 Sudeste 28 Este 0 -- -- 13
2019-03-26 18:00:00 16.9 12 Sur 41 Oeste 0 -- -- 11
2019-03-26 17:00:00 19.9 15 Sudoeste 53 Sur 0 -- -- 10
2019-03-26 16:00:00 20 21 Sudoeste 54 Sur 0 -- -- 10
2019-03-26 15:00:00 20.4 16 Sudoeste 35 Sudoeste 0 -- -- 12
2019-03-26 14:00:00 19 9 Este 32 Sur 0 -- -- 13
2019-03-26 13:00:00 18.7 8 Nordeste 28 Nordeste 0 -- -- 15
2019-03-26 12:00:00 17.6 5 Sudoeste 12 Sudoeste 0 -- -- 15
2019-03-26 11:00:00 12 3 Sudeste 6 Sur 0 -- -- 40
2019-03-26 10:00:00 7.9 3 Sudeste 7 Sur 0 -- -- 48
2019-03-26 09:00:00 3.7 3 Este 6 Norte 0 -- -- 64
2019-03-26 08:00:00 -1 4 Norte 11 Norte 0 -- -- 77
2019-03-26 07:00:00 -0.2 5 Norte 19 Norte 0 -- -- 73
2019-03-26 06:00:00 1.7 10 Norte 19 Norte 0 -- -- 69
2019-03-26 05:00:00 0.1 3 Este 12 Norte 0 -- -- 75
2019-03-26 04:00:00 -0.8 3 Nordeste 14 Norte 0 -- -- 78
2019-03-26 03:00:00 0.1 3 Nordeste 8 Norte 0 -- -- 80
2019-03-26 02:00:00 1.1 7 Norte 11 Norte 0 -- -- 73
2019-03-26 01:00:00 1.7 3 Norte 13 Norte 0 -- -- 74
2019-03-26 00:00:00 3.7 9 Norte 17 Norte 0 -- -- 67
2019-03-25 23:00:00 4.3 9 Norte 15 Norte 0 -- -- 70
2019-03-25 22:00:00 6.2 8 Norte 16 Noroeste 0 -- -- 61
2019-03-25 21:00:00 7.9 11 Norte 17 Noroeste 0 -- -- 59
2019-03-25 20:00:00 9.6 5 Este 14 Este 0 -- -- 55
2019-03-25 19:00:00 11.2 4 Nordeste 23 Este 0 -- -- 51
2019-03-25 18:00:00 13.7 10 Este 23 Sudeste 0 -- -- 46
2019-03-25 17:00:00 17.6 12 Este 25 Nordeste 0 -- -- 31
2019-03-25 16:00:00 18 10 Nordeste 24 Este 0 -- -- 33
2019-03-25 15:00:00 19.1 12 Este 23 Este 0 -- -- 30
2019-03-25 14:00:00 18.1 8 Este 25 Este 0 -- -- 27
2019-03-25 13:00:00 17.4 10 Este 23 Este 0 -- -- 24
2019-03-25 12:00:00 16.6 6 Este 16 Nordeste 0 -- -- 24
2019-03-25 11:00:00 10.4 4 Sur 7 Sur 0 -- -- 54
2019-03-25 10:00:00 8.4 3 Sudeste 5 Sudeste 0 -- -- 58
2019-03-25 09:00:00 4.2 2 Sudeste 4 Este 0 -- -- 87
2019-03-25 08:00:00 -1.3 3 Nordeste 6 Norte 0 -- -- 98
2019-03-25 07:00:00 -1.3 3 Norte 5 Nordeste 0 -- -- 97
2019-03-25 06:00:00 -1 2 Este 8 Nordeste 0 -- -- 96
2019-03-25 05:00:00 -0.4 2 Este 8 Nordeste 0 -- -- 96
2019-03-25 04:00:00 0.3 3 Nordeste 8 Norte 0 -- -- 95
2019-03-25 03:00:00 1.3 4 Nordeste 9 Nordeste 0 -- -- 92
2019-03-25 02:00:00 2.2 3 Norte 9 Norte 0 -- -- 91
2019-03-25 01:00:00 2.7 4 Norte 10 Norte 0 -- -- 89
2019-03-25 00:00:00 3.9 5 Norte 12 Norte 0 -- -- 81
2019-03-24 23:00:00 5.7 6 Nordeste 10 Nordeste 0 -- -- 77
2019-03-24 22:00:00 6.9 5 Norte 17 Norte 0 -- -- 75
2019-03-24 21:00:00 8.9 4 Norte 18 Nordeste 0 -- -- 70
2019-03-24 20:00:00 11.8 10 Norte 26 Noroeste 0 -- -- 60
2019-03-24 19:00:00 14.1 15 Noroeste 32 Noroeste 0 -- -- 50
2019-03-24 18:00:00 15.2 13 Noroeste 27 Norte 0 -- -- 43
2019-03-24 17:00:00 19.1 13 Norte 23 Norte 0 -- -- 35
2019-03-24 16:00:00 19.1 13 Norte 26 Norte 0 -- -- 33
2019-03-24 15:00:00 19.1 12 Norte 26 Noroeste 0 -- -- 34
2019-03-24 14:00:00 20.2 9 Nordeste 20 Este 0 -- -- 27
2019-03-24 13:00:00 19.8 8 Este 21 Este 0 -- -- 29
2019-03-24 12:00:00 18.1 6 Este 15 Este 0 -- -- 31
2019-03-24 11:00:00 12.9 2 Sudeste 5 Sur 0 -- -- 49
2019-03-24 10:00:00 8.9 3 Sudeste 6 Este 0 -- -- 61
2019-03-24 09:00:00 4.3 0 Calma 5 Norte 0 -- -- 83
2019-03-24 08:00:00 -0.7 2 Nordeste 5 Norte 0 -- -- 93
2019-03-24 07:00:00 -1.1 0 Calma 6 Norte 0 -- -- 95
2019-03-24 06:00:00 -0.8 3 Nordeste 6 Nordeste 0 -- -- 93
2019-03-24 05:00:00 -0.4 2 Norte 5 Noroeste 0 -- -- 92
2019-03-24 04:00:00 -0.1 3 Norte 6 Norte 0 -- -- 89
2019-03-24 03:00:00 0.8 0 Calma 6 Norte 0 -- -- 90
2019-03-24 02:00:00 1.6 3 Nordeste 5 Norte 0 -- -- 87
2019-03-24 01:00:00 2.3 0 Calma 4 Nordeste 0 -- -- 84
2019-03-24 00:00:00 3.1 3 Noroeste 6 Norte 0 -- -- 81
2019-03-23 23:00:00 4.6 2 Norte 9 Norte 0 -- -- 75
2019-03-23 22:00:00 6.6 6 Norte 10 Noroeste 0 -- -- 67
2019-03-23 21:00:00 8.2 5 Norte 10 Norte 0 -- -- 61
2019-03-23 20:00:00 12.2 7 Norte 26 Oeste 0 -- -- 47
2019-03-23 19:00:00 14.4 17 Noroeste 26 Noroeste 0 -- -- 40
2019-03-23 18:00:00 15.9 14 Noroeste 22 Noroeste 0 -- -- 37
2019-03-23 17:00:00 21.8 5 Sudoeste 13 Sur 0 -- -- 26
2019-03-23 16:00:00 21.4 9 Sur 21 Sur 0 -- -- 27
2019-03-23 15:00:00 20 9 Sur 18 Sudoeste 0 -- -- 26
2019-03-23 14:00:00 20.4 5 Sudeste 12 Sur 0 -- -- 28
2019-03-23 13:00:00 18.1 5 Sur 8 Sur 0 -- -- 29
2019-03-23 12:00:00 14.7 4 Sur 7 Sur 0 -- -- 40
2019-03-23 11:00:00 9.4 3 Sur 6 Sur 0 -- -- 52
2019-03-23 10:00:00 6.9 3 Sudeste 5 Este 0 -- -- 61
2019-03-23 09:00:00 1.7 3 Este 5 Este 0 -- -- 86
2019-03-23 08:00:00 -2.5 3 Norte 6 Norte 0 -- -- 95
2019-03-23 07:00:00 -2.7 5 Norte 6 Norte 0 -- -- 95
2019-03-23 06:00:00 -2.1 3 Norte 6 Norte 0 -- -- 95
2019-03-23 05:00:00 -1.5 2 Norte 5 Nordeste 0 -- -- 95
2019-03-23 04:00:00 -1.2 3 Nordeste 6 Norte 0 -- -- 93
2019-03-23 03:00:00 -0.4 3 Nordeste 7 Este 0 -- -- 93
2019-03-23 02:00:00 0.6 3 Nordeste 6 Norte 0 -- -- 91
2019-03-23 01:00:00 1.3 2 Nordeste 6 Este 0 -- -- 90
2019-03-23 00:00:00 2.3 2 Nordeste 5 Este 0 -- -- 89
2019-03-22 23:00:00 4 3 Norte 6 Noroeste 0 -- -- 83
2019-03-22 22:00:00 5.3 3 Noroeste 10 Norte 0 -- -- 79
2019-03-22 21:00:00 8.3 3 Norte 18 Norte 0 -- -- 69
2019-03-22 20:00:00 11.5 9 Norte 20 Noroeste 0 -- -- 56
2019-03-22 19:00:00 13.3 10 Noroeste 21 Norte 0 -- -- 48
2019-03-22 18:00:00 15.1 5 Norte 19 Sudoeste 0 -- -- 36
2019-03-22 17:00:00 18.2 15 Sudoeste 22 Sudoeste 0 -- -- 29
2019-03-22 16:00:00 18.3 13 Sur 22 Sur 0 -- -- 32
2019-03-22 15:00:00 17.8 12 Sur 15 Sur 0 -- -- 32
2019-03-22 14:00:00 17.4 6 Sur 10 Sudoeste 0 -- -- 31
2019-03-22 13:00:00 16.2 4 Sudeste 8 Sur 0 -- -- 29
2019-03-22 12:00:00 13.1 3 Sur 6 Sur 0 -- -- 46
2019-03-22 11:00:00 9 2 Sudeste 6 Sur 0 -- -- 54
2019-03-22 10:00:00 6.2 3 Sur 6 Sudoeste 0 -- -- 61
2019-03-22 09:00:00 1.1 3 Sudeste 5 Sudeste 0 -- -- 88
2019-03-22 08:00:00 -3 3 Norte 6 Norte 0 -- -- 95
2019-03-22 07:00:00 -2.9 2 Nordeste 5 Nordeste 0 -- -- 94
2019-03-22 06:00:00 -2.6 2 Norte 5 Nordeste 0 -- -- 94
2019-03-22 05:00:00 -2.1 3 Norte 5 Norte 0 -- -- 92
2019-03-22 04:00:00 -1.4 3 Norte 5 Nordeste 0 -- -- 92
2019-03-22 03:00:00 -1 2 Norte 6 Norte 0 -- -- 92
2019-03-22 02:00:00 -0.1 0 Calma 5 Noroeste 0 -- -- 92
2019-03-22 01:00:00 0.7 2 Sudeste 5 Este 0 -- -- 91
2019-03-22 00:00:00 1.7 0 Calma 3 Noroeste 0 -- -- 90
2019-03-21 23:00:00 2.8 0 Calma 4 Norte 0 -- -- 86
2019-03-21 22:00:00 5.3 5 Norte 13 Norte 0 -- -- 78
2019-03-21 21:00:00 7 4 Norte 14 Norte 0 -- -- 72
2019-03-21 20:00:00 9.4 6 Noroeste 24 Norte 0 -- -- 63
2019-03-21 19:00:00 12.1 17 Noroeste 27 Noroeste 0 -- -- 53
2019-03-21 18:00:00 13.1 19 Noroeste 28 Noroeste 0 -- -- 49
2019-03-21 17:00:00 16.2 15 Noroeste 32 Noroeste 0 -- -- 41
2019-03-21 16:00:00 16.6 16 Noroeste 35 Norte 0 -- -- 37
2019-03-21 15:00:00 18.5 6 Sudoeste 25 Sur 0 -- -- 30
2019-03-21 14:00:00 16.4 14 Sur 21 Sudoeste 0 -- -- 29
2019-03-21 13:00:00 14.2 6 Sur 11 Sur 0 -- -- 33
2019-03-21 12:00:00 12.8 7 Sur 12 Sur 0 -- -- 40
2019-03-21 11:00:00 7.5 4 Sur 8 Sur 0 -- -- 52
2019-03-21 10:00:00 5.1 4 Sur 7 Sur 0 -- -- 66
2019-03-21 09:00:00 1.1 0 Calma 4 Este 0 -- -- 90
2019-03-21 08:00:00 -1.9 3 Nordeste 6 Norte 0 -- -- 93
2019-03-21 07:00:00 -1.5 0 Calma 5 Norte 0 -- -- 95
2019-03-21 06:00:00 -0.2 2 Oeste 6 Norte 0 -- -- 92
2019-03-21 05:00:00 -0.3 0 Calma 5 Norte 0 -- -- 92
2019-03-21 04:00:00 -0.6 0 Calma 5 Norte 0 -- -- 93
2019-03-21 03:00:00 -0.7 2 Nordeste 6 Nordeste 0 -- -- 89
2019-03-21 02:00:00 -0.2 5 Nordeste 8 Norte 0 -- -- 93
2019-03-21 01:00:00 0.5 4 Norte 8 Nordeste 0 -- -- 88
2019-03-21 00:00:00 1.2 3 Norte 8 Noroeste 0 -- -- 91